createdAt,value
2019-05-19T00:01:41.589Z,100239.63
2019-05-19T00:04:18.047Z,100236.93
2019-05-19T00:06:54.523Z,100239.16
2019-05-19T00:09:31.674Z,100251.23
2019-05-19T00:12:08.109Z,100245.80
2019-05-19T00:14:44.918Z,100249.24
2019-05-19T00:17:21.892Z,100249.97
2019-05-19T00:19:58.589Z,100265.48
2019-05-19T00:22:35.048Z,100258.09
2019-05-19T00:25:10.201Z,100265.71
2019-05-19T00:27:46.327Z,100258.05
2019-05-19T00:30:25.504Z,100257.41
2019-05-19T00:33:25.935Z,100257.16
2019-05-19T00:36:01.459Z,100259.69
2019-05-19T00:38:36.832Z,100256.14
2019-05-19T00:41:11.967Z,100249.63
2019-05-19T00:43:47.478Z,100255.63
2019-05-19T00:46:23.825Z,100253.91
2019-05-19T00:49:02.627Z,100253.44
2019-05-19T00:51:38.091Z,100256.98
2019-05-19T00:54:14.936Z,100258.22
2019-05-19T00:56:51.522Z,100256.51
2019-05-19T00:59:27.846Z,100252.45
2019-05-19T01:02:04.052Z,100247.52
2019-05-19T01:04:39.139Z,100244.08
2019-05-19T01:07:15.503Z,100246.78
2019-05-19T01:09:50.656Z,100248.61
2019-05-19T01:12:26.026Z,100247.52
2019-05-19T01:15:01.501Z,100249.48
2019-05-19T01:17:37.739Z,100247.41
2019-05-19T01:20:14.121Z,100243.09
2019-05-19T01:22:49.414Z,100243.20
2019-05-19T01:25:24.552Z,100237.91
2019-05-19T01:27:59.792Z,100250.70
2019-05-19T01:30:35.178Z,100248.59
2019-05-19T01:33:10.405Z,100251.21
2019-05-19T01:35:45.848Z,100242.44
2019-05-19T01:38:21.188Z,100246.25
2019-05-19T01:40:56.531Z,100242.56
2019-05-19T01:43:31.796Z,100241.69
2019-05-19T01:46:07.164Z,100250.53
2019-05-19T01:48:42.274Z,100243.80
2019-05-19T01:51:18.549Z,100240.95
2019-05-19T01:53:54.101Z,100245.04
2019-05-19T01:56:29.380Z,100233.20
2019-05-19T01:59:05.481Z,100233.68
2019-05-19T02:01:41.605Z,100230.61
2019-05-19T02:04:16.914Z,100233.70
2019-05-19T02:06:52.272Z,100240.47
2019-05-19T02:09:27.459Z,100230.50
2019-05-19T02:12:02.641Z,100228.49
2019-05-19T02:14:38.745Z,100230.58
2019-05-19T02:17:14.114Z,100224.80
2019-05-19T02:19:49.464Z,100224.29
2019-05-19T02:22:24.735Z,100223.67
2019-05-19T02:25:00.963Z,100218.73
2019-05-19T02:27:42.942Z,100221.81
2019-05-19T02:30:48.583Z,100224.03
2019-05-19T02:33:58.038Z,100223.78
2019-05-19T02:36:45.338Z,100228.16
2019-05-19T02:39:21.723Z,100228.56
2019-05-19T02:41:57.820Z,100234.34
2019-05-19T02:44:33.895Z,100230.03
2019-05-19T02:47:10.592Z,100228.02
2019-05-19T02:49:46.509Z,100230.57
2019-05-19T02:52:21.983Z,100229.47
2019-05-19T02:54:57.289Z,100231.03
2019-05-19T02:57:34.079Z,100230.36
2019-05-19T03:00:11.482Z,100230.22
2019-05-19T03:02:46.550Z,100226.16
2019-05-19T03:05:22.063Z,100222.11
2019-05-19T03:07:57.486Z,100216.59
2019-05-19T03:10:32.643Z,100221.48
2019-05-19T03:13:07.905Z,100221.77
2019-05-19T03:15:43.190Z,100224.25
2019-05-19T03:18:19.635Z,100222.27
2019-05-19T03:21:09.942Z,100221.50
2019-05-19T03:23:31.591Z,100225.19
2019-05-19T03:26:06.844Z,100230.02
2019-05-19T03:28:42.098Z,100231.48
2019-05-19T03:31:18.917Z,100224.91
2019-05-19T03:33:55.642Z,100235.66
2019-05-19T03:36:31.731Z,100245.70
2019-05-19T03:39:07.878Z,100236.03
2019-05-19T03:41:43.022Z,100239.36
2019-05-19T03:44:18.442Z,100239.98
2019-05-19T03:46:53.548Z,100243.72
2019-05-19T03:49:28.823Z,100246.67
2019-05-19T03:52:03.924Z,100246.95
2019-05-19T03:54:39.066Z,100240.22
2019-05-19T03:57:14.352Z,100243.81
2019-05-19T03:59:49.639Z,100243.08
2019-05-19T04:02:24.980Z,100238.55
2019-05-19T04:05:00.250Z,100247.94
2019-05-19T04:07:36.445Z,100244.02
2019-05-19T04:10:12.172Z,100242.78
2019-05-19T04:16:40.801Z,100250.30
2019-05-19T04:19:15.918Z,100254.88
2019-05-19T04:21:51.254Z,100257.23
2019-05-19T04:24:29.028Z,100257.49
2019-05-19T04:27:04.279Z,100257.73
2019-05-19T04:29:39.703Z,100257.66
2019-05-19T04:32:15.305Z,100253.98
2019-05-19T04:34:52.391Z,100250.70
2019-05-19T04:37:27.806Z,100248.23
2019-05-19T04:40:03.156Z,100252.33
2019-05-19T04:42:38.256Z,100252.81
2019-05-19T04:45:13.599Z,100252.80
2019-05-19T04:47:48.801Z,100254.03
2019-05-19T04:50:24.906Z,100255.52
2019-05-19T04:53:00.961Z,100246.88
2019-05-19T04:55:36.054Z,100244.90
2019-05-19T04:58:13.212Z,100244.27
2019-05-19T05:00:49.665Z,100236.22
2019-05-19T05:03:25.717Z,100239.45
2019-05-19T05:06:01.045Z,100237.56
2019-05-19T05:08:36.484Z,100245.30
2019-05-19T05:11:11.613Z,100241.47
2019-05-19T05:13:46.766Z,100240.23
2019-05-19T05:16:22.024Z,100245.73
2019-05-19T05:18:57.539Z,100242.24
2019-05-19T05:21:32.765Z,100246.64
2019-05-19T05:24:09.038Z,100246.94
2019-05-19T05:26:44.529Z,100242.72
2019-05-19T05:29:19.873Z,100244.62
2019-05-19T05:31:55.117Z,100244.37
2019-05-19T05:37:09.639Z,100245.08
2019-05-19T05:39:44.949Z,100244.16
2019-05-19T05:42:20.355Z,100246.75
2019-05-19T05:44:55.805Z,100245.49
2019-05-19T05:47:30.918Z,100247.29
2019-05-19T05:50:07.723Z,100243.42
2019-05-19T05:52:42.825Z,100243.75
2019-05-19T05:55:18.340Z,100240.13
2019-05-19T05:57:57.456Z,100245.25
2019-05-19T06:00:32.798Z,100248.27
2019-05-19T06:03:09.956Z,100239.13
2019-05-19T06:05:45.064Z,100240.94
2019-05-19T06:08:20.943Z,100239.09
2019-05-19T06:10:57.190Z,100237.63
2019-05-19T06:13:32.677Z,100237.95
2019-05-19T06:16:08.162Z,100237.12
2019-05-19T06:18:43.986Z,100241.48
2019-05-19T06:21:20.539Z,100243.02
2019-05-19T06:23:55.737Z,100249.16
2019-05-19T06:26:31.964Z,100243.61
2019-05-19T06:29:12.865Z,100240.45
2019-05-19T06:31:52.366Z,100240.60
2019-05-19T06:34:30.685Z,100243.69
2019-05-19T06:37:06.094Z,100239.96
2019-05-19T06:39:42.150Z,100233.65
2019-05-19T06:42:31.135Z,100232.11
2019-05-19T06:45:07.746Z,100236.72
2019-05-19T06:47:49.793Z,100229.11
2019-05-19T06:50:25.359Z,100229.25
2019-05-19T06:53:14.196Z,100230.54
2019-05-19T06:55:43.131Z,100229.69
2019-05-19T06:58:18.320Z,100229.89
2019-05-19T07:00:53.791Z,100232.22
2019-05-19T07:03:28.991Z,100231.09
2019-05-19T07:06:15.026Z,100227.37
2019-05-19T07:08:54.049Z,100226.59
2019-05-19T07:11:33.832Z,100231.00
2019-05-19T07:17:33.367Z,100216.73
2019-05-19T07:23:50.155Z,100212.91
2019-05-19T07:26:41.832Z,100208.24
2019-05-19T07:29:39.184Z,100199.48
2019-05-19T07:32:35.551Z,100211.74
2019-05-19T07:35:15.683Z,100208.72
2019-05-19T07:37:54.162Z,100203.53
2019-05-19T07:40:32.562Z,100204.56
2019-05-19T07:43:15.944Z,100201.69
2019-05-19T07:45:58.852Z,100192.28
2019-05-19T07:48:43.315Z,100194.52
2019-05-19T07:51:36.054Z,100194.98
2019-05-19T07:54:17.224Z,100182.87
2019-05-19T07:57:04.406Z,100179.53
2019-05-19T08:03:17.190Z,100182.97
2019-05-19T08:06:15.626Z,100182.72
2019-05-19T08:09:05.714Z,100177.94
2019-05-19T08:11:51.103Z,100172.41
2019-05-19T08:18:17.810Z,100166.02
2019-05-19T08:27:47.560Z,100166.70
2019-05-19T08:49:34.577Z,100157.77
2019-05-19T08:52:16.207Z,100170.18
2019-05-19T08:54:55.682Z,100168.38
2019-05-19T08:57:52.153Z,100174.23
2019-05-19T09:00:53.081Z,100158.66
2019-05-19T09:03:38.768Z,100158.66
2019-05-19T09:06:24.784Z,100164.42
2019-05-19T09:14:53.408Z,100158.45
2019-05-19T09:20:16.700Z,100164.22
2019-05-19T09:32:22.892Z,100138.27
2019-05-19T09:35:12.487Z,100137.41
2019-05-19T09:37:59.323Z,100129.14
2019-05-19T09:40:45.026Z,100134.55
2019-05-19T09:43:21.818Z,100128.03
2019-05-19T10:02:13.611Z,100118.98
2019-05-19T10:04:59.935Z,100112.38
2019-05-19T10:14:25.566Z,100108.09
2019-05-19T10:17:26.031Z,100121.23
2019-05-19T10:26:20.702Z,100104.36
2019-05-19T10:29:07.161Z,100102.59
2019-05-19T10:42:38.769Z,100094.50
2019-05-19T11:23:49.782Z,100061.02
2019-05-19T11:48:50.840Z,100041.80
2019-05-19T12:01:17.931Z,100036.51
2019-05-19T12:07:28.781Z,100025.05
2019-05-19T12:10:21.407Z,100017.80
2019-05-19T12:35:49.328Z,100009.36
2019-05-19T13:27:31.203Z,99982.97
2019-05-19T14:21:37.717Z,99973.13
2019-05-19T14:30:48.467Z,99976.49
2019-05-19T14:33:46.939Z,99978.87
2019-05-19T14:36:48.762Z,99977.03
2019-05-19T14:39:48.027Z,99986.83
2019-05-19T14:42:58.974Z,99987.11
2019-05-19T14:49:02.401Z,99985.52
2019-05-19T14:51:41.530Z,99981.00
2019-05-19T14:54:20.775Z,99991.28
2019-05-19T14:56:59.960Z,100000.17
2019-05-19T14:59:36.357Z,99995.77
2019-05-19T15:02:12.984Z,99997.84
2019-05-19T15:04:48.307Z,99994.82
2019-05-19T15:07:26.862Z,99997.84
2019-05-19T15:10:02.009Z,99991.17
2019-05-19T15:12:39.892Z,99984.28
2019-05-19T15:15:18.045Z,99987.36
2019-05-19T15:17:53.762Z,99981.41
2019-05-19T15:20:29.541Z,99980.60
2019-05-19T15:23:05.817Z,99976.94
2019-05-19T15:25:50.596Z,99974.97
2019-05-19T15:28:26.288Z,99967.17
2019-05-19T15:31:01.772Z,99960.80
2019-05-19T15:33:38.777Z,99961.20
2019-05-19T15:36:18.357Z,99971.16
2019-05-19T15:38:58.112Z,99966.27
2019-05-19T15:41:33.275Z,99962.48
2019-05-19T15:44:11.059Z,99959.37
2019-05-19T15:46:52.619Z,99962.05
2019-05-19T15:49:33.912Z,99960.06
2019-05-19T15:52:14.796Z,99955.69
2019-05-19T15:54:54.905Z,99952.57
2019-05-19T15:57:39.173Z,99965.63
2019-05-19T16:00:17.131Z,99961.88
2019-05-19T16:02:58.116Z,99952.33
2019-05-19T16:05:36.104Z,99948.76
2019-05-19T16:08:13.281Z,99950.20
2019-05-19T16:10:50.189Z,99949.16
2019-05-19T16:13:28.503Z,99949.67
2019-05-19T16:16:06.202Z,99940.84
2019-05-19T16:18:41.742Z,99940.09
2019-05-19T16:21:18.071Z,99942.11
2019-05-19T16:23:53.439Z,99937.55
2019-05-19T16:26:30.876Z,99935.33
2019-05-19T16:29:06.218Z,99936.22
2019-05-19T16:31:41.713Z,99938.96
2019-05-19T16:34:17.407Z,99938.08
2019-05-19T16:36:54.589Z,99927.84
2019-05-19T16:39:31.639Z,99933.59
2019-05-19T16:42:06.706Z,99920.06
2019-05-19T16:44:42.318Z,99926.36
2019-05-19T16:47:30.023Z,99923.34
2019-05-19T16:50:15.772Z,99920.55
2019-05-19T16:52:50.970Z,99919.73
2019-05-19T16:55:31.240Z,99922.74
2019-05-19T16:58:20.609Z,99920.67
2019-05-19T17:00:58.053Z,99928.33
2019-05-19T17:03:41.192Z,99928.20
2019-05-19T17:06:18.774Z,99927.96
2019-05-19T17:08:58.104Z,99929.50
2019-05-19T17:11:37.094Z,99931.41
2019-05-19T17:14:12.274Z,99936.22
2019-05-19T17:16:48.836Z,99932.55
2019-05-19T17:19:33.865Z,99933.95
2019-05-19T17:22:11.470Z,99931.61
2019-05-19T17:24:46.696Z,99936.06
2019-05-19T17:27:23.652Z,99930.39
2019-05-19T17:29:58.859Z,99922.39
2019-05-19T17:32:37.961Z,99926.67
2019-05-19T17:35:15.695Z,99926.17
2019-05-19T17:37:52.834Z,99923.44
2019-05-19T17:40:28.034Z,99928.27
2019-05-19T17:43:03.256Z,99927.23
2019-05-19T17:45:39.754Z,99924.16
2019-05-19T17:48:26.050Z,99925.70
2019-05-19T17:50:54.877Z,99933.27
2019-05-19T17:53:36.181Z,99932.39
2019-05-19T17:56:11.487Z,99933.77
2019-05-19T17:58:47.092Z,99925.22
2019-05-19T18:01:26.305Z,99922.14
2019-05-19T18:04:04.032Z,99927.41
2019-05-19T18:06:41.633Z,99929.65
2019-05-19T18:09:19.446Z,99925.05
2019-05-19T18:11:55.599Z,99926.24
2019-05-19T18:14:31.525Z,99923.85
2019-05-19T18:17:06.847Z,99930.38
2019-05-19T18:19:41.969Z,99923.24
2019-05-19T18:22:17.716Z,99932.83
2019-05-19T18:24:53.950Z,99940.72
2019-05-19T18:27:29.600Z,99937.61
2019-05-19T18:30:05.717Z,99947.20
2019-05-19T18:32:41.353Z,99939.16
2019-05-19T18:35:17.659Z,99929.60
2019-05-19T18:37:54.314Z,99940.02
2019-05-19T18:40:29.622Z,99943.45
2019-05-19T18:43:07.609Z,99946.89
2019-05-19T18:45:43.852Z,99952.17
2019-05-19T18:48:23.086Z,99952.17
2019-05-19T18:50:57.104Z,99954.41
2019-05-19T18:53:39.039Z,99947.89
2019-05-19T18:56:46.730Z,99950.80
2019-05-19T18:59:25.196Z,99951.00
2019-05-19T19:02:07.273Z,99952.70
2019-05-19T19:04:43.571Z,99954.75
2019-05-19T19:07:19.253Z,99946.73
2019-05-19T19:09:54.746Z,99957.84
2019-05-19T19:12:30.177Z,99961.06
2019-05-19T19:15:08.604Z,99957.81
2019-05-19T19:17:45.337Z,99975.95
2019-05-19T19:20:21.890Z,99979.70
2019-05-19T19:22:56.997Z,99970.81
2019-05-19T19:25:32.433Z,99969.27
2019-05-19T19:28:09.901Z,99973.85
2019-05-19T19:30:45.409Z,99977.25
2019-05-19T19:33:24.919Z,99977.57
2019-05-19T19:36:01.038Z,99975.69
2019-05-19T19:38:36.817Z,99980.31
2019-05-19T19:41:11.957Z,99983.52
2019-05-19T19:43:49.450Z,99986.77
2019-05-19T19:46:27.089Z,99981.59
2019-05-19T19:49:02.193Z,99974.76
2019-05-19T19:51:38.394Z,99967.56
2019-05-19T19:54:17.106Z,99971.64
2019-05-19T19:56:53.342Z,99959.67
2019-05-19T19:59:29.021Z,99955.55
2019-05-19T20:02:04.519Z,99950.38
2019-05-19T20:04:39.934Z,99953.13
2019-05-19T20:07:15.553Z,99953.44
2019-05-19T20:09:51.313Z,99951.55
2019-05-19T20:12:28.399Z,99953.23
2019-05-19T20:15:04.015Z,99962.23
2019-05-19T20:17:40.831Z,99956.43
2019-05-19T20:20:16.084Z,99957.61
2019-05-19T20:22:56.874Z,99953.98
2019-05-19T20:25:32.562Z,99953.98
2019-05-19T20:28:09.107Z,99966.64
2019-05-19T20:30:45.309Z,99955.53
2019-05-19T20:33:20.436Z,99955.53
2019-05-19T20:35:57.211Z,99974.34
2019-05-19T20:38:33.410Z,99975.89
2019-05-19T20:41:09.478Z,99979.86
2019-05-19T20:43:45.704Z,99975.02
2019-05-19T20:46:20.927Z,99981.35
2019-05-19T20:48:56.981Z,99983.44
2019-05-19T20:51:33.589Z,99983.74
2019-05-19T20:54:09.936Z,99974.19
2019-05-19T20:56:55.113Z,99979.28
2019-05-19T20:59:42.745Z,99979.74
2019-05-19T21:02:34.551Z,99979.56
2019-05-19T21:05:31.320Z,99973.91
2019-05-19T21:08:19.539Z,99971.30
2019-05-19T21:10:55.915Z,99971.30
2019-05-19T21:13:31.333Z,99964.98
2019-05-19T21:16:08.612Z,99968.70
2019-05-19T21:18:45.008Z,99958.73
2019-05-19T21:21:20.519Z,99961.89
2019-05-19T21:23:57.887Z,99962.19
2019-05-19T21:26:35.016Z,99964.05
2019-05-19T21:29:11.095Z,99964.13
2019-05-19T21:31:52.684Z,99970.22
2019-05-19T21:34:33.587Z,99976.61
2019-05-19T21:37:08.939Z,99971.13
2019-05-19T21:39:46.074Z,99976.34
2019-05-19T21:42:23.670Z,99965.72
2019-05-19T21:45:01.805Z,99971.66
2019-05-19T21:47:39.187Z,99970.55
2019-05-19T21:50:14.485Z,99980.72
2019-05-19T21:52:51.976Z,99972.81
2019-05-19T21:55:28.290Z,99973.11
2019-05-19T21:58:04.539Z,99974.03
2019-05-19T22:00:39.978Z,99980.45
2019-05-19T22:03:17.462Z,99977.33
2019-05-19T22:05:53.869Z,99972.50
2019-05-19T22:08:29.215Z,99972.77
2019-05-19T22:11:04.719Z,99967.61
2019-05-19T22:13:40.979Z,99969.20
2019-05-19T22:16:16.237Z,99976.77
2019-05-19T22:18:52.567Z,99973.88
2019-05-19T22:21:30.086Z,99971.77
2019-05-19T22:24:05.257Z,99977.67
2019-05-19T22:26:41.464Z,99973.04
2019-05-19T22:29:16.820Z,99973.61
2019-05-19T22:31:52.117Z,99966.11
2019-05-19T22:34:28.869Z,99971.70
2019-05-19T22:37:05.303Z,99974.22
2019-05-19T22:39:41.799Z,99970.66
2019-05-19T22:42:17.841Z,99967.14
2019-05-19T22:44:53.407Z,99967.20
2019-05-19T22:47:29.398Z,99960.82
2019-05-19T22:50:08.557Z,99962.30
2019-05-19T22:52:49.030Z,99955.56
2019-05-19T22:55:24.514Z,99957.03
2019-05-19T22:58:00.120Z,99959.97
2019-05-19T23:00:36.633Z,99956.69
2019-05-19T23:03:16.941Z,99956.03
2019-05-19T23:05:52.033Z,99952.62
2019-05-19T23:08:27.171Z,99958.61
2019-05-19T23:11:06.260Z,99961.78
2019-05-19T23:13:41.414Z,99970.61
2019-05-19T23:16:16.535Z,99968.65
2019-05-19T23:18:52.735Z,99970.59
2019-05-19T23:21:28.177Z,99961.80
2019-05-19T23:24:05.441Z,99959.95
2019-05-19T23:26:45.160Z,99958.59
2019-05-19T23:29:20.431Z,99957.94
2019-05-19T23:32:06.692Z,99954.72
2019-05-19T23:34:34.553Z,99952.73
2019-05-19T23:37:09.812Z,99945.73
2019-05-19T23:39:46.315Z,99940.35
2019-05-19T23:42:22.853Z,99936.00
2019-05-19T23:44:57.885Z,99934.70
2019-05-19T23:47:33.005Z,99935.71
2019-05-19T23:50:10.211Z,99936.70
2019-05-19T23:52:45.640Z,99942.14
2019-05-19T23:55:22.746Z,99942.80
2019-05-19T23:57:57.875Z,99943.94
